sensor_id;sensor_type;location;lat;lon;timestamp;temperature;humidity
5806;DHT22;2929;50.810;8.342;2024-02-16T00:02:13;7.50;99.90
5806;DHT22;2929;50.810;8.342;2024-02-16T00:04:41;7.50;99.90
5806;DHT22;2929;50.810;8.342;2024-02-16T00:07:08;7.50;99.90
5806;DHT22;2929;50.810;8.342;2024-02-16T00:09:36;7.60;99.90
5806;DHT22;2929;50.810;8.342;2024-02-16T00:12:03;7.60;99.90
5806;DHT22;2929;50.810;8.342;2024-02-16T00:14:30;7.60;99.90
5806;DHT22;2929;50.810;8.342;2024-02-16T00:16:57;7.60;99.90
5806;DHT22;2929;50.810;8.342;2024-02-16T00:19:25;7.60;99.90
5806;DHT22;2929;50.810;8.342;2024-02-16T00:21:52;7.60;99.90
5806;DHT22;2929;50.810;8.342;2024-02-16T00:24:19;7.60;99.90
5806;DHT22;2929;50.810;8.342;2024-02-16T00:26:47;7.60;99.90
5806;DHT22;2929;50.810;8.342;2024-02-16T00:29:15;7.60;99.90
5806;DHT22;2929;50.810;8.342;2024-02-16T00:31:42;7.60;99.90
5806;DHT22;2929;50.810;8.342;2024-02-16T00:34:09;7.60;99.90
5806;DHT22;2929;50.810;8.342;2024-02-16T00:36:37;7.60;99.90
5806;DHT22;2929;50.810;8.342;2024-02-16T00:39:04;7.50;99.90
5806;DHT22;2929;50.810;8.342;2024-02-16T00:41:31;7.50;99.90
5806;DHT22;2929;50.810;8.342;2024-02-16T00:43:59;7.60;99.90
5806;DHT22;2929;50.810;8.342;2024-02-16T00:46:29;7.50;99.90
5806;DHT22;2929;50.810;8.342;2024-02-16T00:48:58;7.50;99.90
5806;DHT22;2929;50.810;8.342;2024-02-16T00:51:25;7.50;99.90
5806;DHT22;2929;50.810;8.342;2024-02-16T00:53:52;7.60;99.90
5806;DHT22;2929;50.810;8.342;2024-02-16T00:56:19;7.60;99.90
5806;DHT22;2929;50.810;8.342;2024-02-16T00:58:46;7.50;99.90
5806;DHT22;2929;50.810;8.342;2024-02-16T01:01:15;7.50;99.90
5806;DHT22;2929;50.810;8.342;2024-02-16T01:03:42;7.40;99.90
5806;DHT22;2929;50.810;8.342;2024-02-16T01:06:09;7.40;99.90
5806;DHT22;2929;50.810;8.342;2024-02-16T01:08:36;7.40;99.90
5806;DHT22;2929;50.810;8.342;2024-02-16T01:11:03;7.40;99.90
5806;DHT22;2929;50.810;8.342;2024-02-16T01:13:30;7.30;99.90
5806;DHT22;2929;50.810;8.342;2024-02-16T01:15:58;7.30;99.90
5806;DHT22;2929;50.810;8.342;2024-02-16T01:18:28;7.20;99.90
5806;DHT22;2929;50.810;8.342;2024-02-16T01:20:56;7.20;99.90
5806;DHT22;2929;50.810;8.342;2024-02-16T01:23:23;7.20;99.90
5806;DHT22;2929;50.810;8.342;2024-02-16T01:25:50;7.20;99.90
5806;DHT22;2929;50.810;8.342;2024-02-16T01:28:17;7.20;99.90
5806;DHT22;2929;50.810;8.342;2024-02-16T01:30:44;7.00;99.90
5806;DHT22;2929;50.810;8.342;2024-02-16T01:33:11;6.80;99.90
5806;DHT22;2929;50.810;8.342;2024-02-16T01:35:39;6.80;99.90
5806;DHT22;2929;50.810;8.342;2024-02-16T01:38:06;6.80;99.90
5806;DHT22;2929;50.810;8.342;2024-02-16T01:40:34;6.80;99.90
5806;DHT22;2929;50.810;8.342;2024-02-16T01:43:01;6.80;99.90
5806;DHT22;2929;50.810;8.342;2024-02-16T01:45:28;6.70;99.90
5806;DHT22;2929;50.810;8.342;2024-02-16T01:47:55;6.80;99.90
5806;DHT22;2929;50.810;8.342;2024-02-16T01:50:22;6.60;99.90
5806;DHT22;2929;50.810;8.342;2024-02-16T01:52:50;6.50;99.90
5806;DHT22;2929;50.810;8.342;2024-02-16T01:55:19;6.40;99.90
5806;DHT22;2929;50.810;8.342;2024-02-16T01:57:50;6.40;99.90
5806;DHT22;2929;50.810;8.342;2024-02-16T02:00:26;6.40;99.90
5806;DHT22;2929;50.810;8.342;2024-02-16T02:02:53;6.40;99.90
5806;DHT22;2929;50.810;8.342;2024-02-16T02:05:20;6.30;99.90
5806;DHT22;2929;50.810;8.342;2024-02-16T02:07:46;6.20;99.90
5806;DHT22;2929;50.810;8.342;2024-02-16T02:10:15;6.20;99.90
5806;DHT22;2929;50.810;8.342;2024-02-16T02:12:42;6.10;99.90
5806;DHT22;2929;50.810;8.342;2024-02-16T02:15:10;6.20;99.90
5806;DHT22;2929;50.810;8.342;2024-02-16T02:17:37;6.10;99.90
5806;DHT22;2929;50.810;8.342;2024-02-16T02:20:06;6.20;99.90
5806;DHT22;2929;50.810;8.342;2024-02-16T02:22:37;6.20;99.90
5806;DHT22;2929;50.810;8.342;2024-02-16T02:25:05;6.30;99.90
5806;DHT22;2929;50.810;8.342;2024-02-16T02:27:32;6.30;99.90
5806;DHT22;2929;50.810;8.342;2024-02-16T02:29:59;6.20;99.90
5806;DHT22;2929;50.810;8.342;2024-02-16T02:32:26;6.20;99.90
5806;DHT22;2929;50.810;8.342;2024-02-16T02:34:54;6.20;99.90
5806;DHT22;2929;50.810;8.342;2024-02-16T02:37:21;6.30;99.90
5806;DHT22;2929;50.810;8.342;2024-02-16T02:39:49;6.30;99.90
5806;DHT22;2929;50.810;8.342;2024-02-16T02:42:16;6.50;99.90
5806;DHT22;2929;50.810;8.342;2024-02-16T02:44:43;6.40;99.90
5806;DHT22;2929;50.810;8.342;2024-02-16T02:47:15;6.40;99.90
5806;DHT22;2929;50.810;8.342;2024-02-16T02:49:42;6.30;99.90
5806;DHT22;2929;50.810;8.342;2024-02-16T02:52:09;6.40;99.90
5806;DHT22;2929;50.810;8.342;2024-02-16T02:54:36;6.40;99.90
5806;DHT22;2929;50.810;8.342;2024-02-16T02:57:05;6.30;99.90
5806;DHT22;2929;50.810;8.342;2024-02-16T02:59:32;6.40;99.90
5806;DHT22;2929;50.810;8.342;2024-02-16T03:01:59;6.40;99.90
5806;DHT22;2929;50.810;8.342;2024-02-16T03:04:26;6.50;99.90
5806;DHT22;2929;50.810;8.342;2024-02-16T03:06:53;6.60;99.90
5806;DHT22;2929;50.810;8.342;2024-02-16T03:09:20;6.60;99.90
5806;DHT22;2929;50.810;8.342;2024-02-16T03:11:48;6.60;99.90
5806;DHT22;2929;50.810;8.342;2024-02-16T03:14:16;6.50;99.90
5806;DHT22;2929;50.810;8.342;2024-02-16T03:16:43;6.50;99.90
5806;DHT22;2929;50.810;8.342;2024-02-16T03:19:10;6.60;99.90
5806;DHT22;2929;50.810;8.342;2024-02-16T03:21:37;6.60;99.90
5806;DHT22;2929;50.810;8.342;2024-02-16T03:24:04;6.70;99.90
5806;DHT22;2929;50.810;8.342;2024-02-16T03:26:31;6.70;99.90
5806;DHT22;2929;50.810;8.342;2024-02-16T03:28:58;6.70;99.90
5806;DHT22;2929;50.810;8.342;2024-02-16T03:31:27;6.60;99.90
5806;DHT22;2929;50.810;8.342;2024-02-16T03:33:54;6.60;99.90
5806;DHT22;2929;50.810;8.342;2024-02-16T03:36:21;6.60;99.90
5806;DHT22;2929;50.810;8.342;2024-02-16T03:38:49;6.60;99.90
5806;DHT22;2929;50.810;8.342;2024-02-16T03:41:19;6.70;99.90
5806;DHT22;2929;50.810;8.342;2024-02-16T03:43:46;6.80;99.90
5806;DHT22;2929;50.810;8.342;2024-02-16T03:46:13;6.80;99.90
5806;DHT22;2929;50.810;8.342;2024-02-16T03:48:42;6.80;99.90
5806;DHT22;2929;50.810;8.342;2024-02-16T03:51:10;6.80;99.90
5806;DHT22;2929;50.810;8.342;2024-02-16T03:53:37;6.80;99.90
5806;DHT22;2929;50.810;8.342;2024-02-16T03:56:04;6.90;99.90
5806;DHT22;2929;50.810;8.342;2024-02-16T03:58:33;7.00;99.90
5806;DHT22;2929;50.810;8.342;2024-02-16T04:01:00;7.00;99.90
5806;DHT22;2929;50.810;8.342;2024-02-16T04:03:27;7.10;99.90
5806;DHT22;2929;50.810;8.342;2024-02-16T04:05:55;7.10;99.90
5806;DHT22;2929;50.810;8.342;2024-02-16T04:08:23;7.10;99.90
5806;DHT22;2929;50.810;8.342;2024-02-16T04:10:50;7.20;99.90
5806;DHT22;2929;50.810;8.342;2024-02-16T04:13:17;7.20;99.90
5806;DHT22;2929;50.810;8.342;2024-02-16T04:15:43;7.20;99.90
5806;DHT22;2929;50.810;8.342;2024-02-16T04:18:10;7.20;99.90
5806;DHT22;2929;50.810;8.342;2024-02-16T04:20:37;7.20;99.90
5806;DHT22;2929;50.810;8.342;2024-02-16T04:23:08;7.20;99.90
5806;DHT22;2929;50.810;8.342;2024-02-16T04:25:35;7.30;99.90
5806;DHT22;2929;50.810;8.342;2024-02-16T04:28:02;7.20;99.90
5806;DHT22;2929;50.810;8.342;2024-02-16T04:30:29;7.30;99.90
5806;DHT22;2929;50.810;8.342;2024-02-16T04:32:56;7.20;99.90
5806;DHT22;2929;50.810;8.342;2024-02-16T04:35:23;7.30;99.90
5806;DHT22;2929;50.810;8.342;2024-02-16T04:37:50;7.30;99.90
5806;DHT22;2929;50.810;8.342;2024-02-16T04:40:18;7.30;99.90
5806;DHT22;2929;50.810;8.342;2024-02-16T04:42:45;7.30;99.90
5806;DHT22;2929;50.810;8.342;2024-02-16T04:45:12;7.30;99.90
5806;DHT22;2929;50.810;8.342;2024-02-16T04:47:39;7.40;99.90
5806;DHT22;2929;50.810;8.342;2024-02-16T04:50:07;7.30;99.90
5806;DHT22;2929;50.810;8.342;2024-02-16T04:52:36;7.40;99.90
5806;DHT22;2929;50.810;8.342;2024-02-16T04:55:05;7.40;99.90
5806;DHT22;2929;50.810;8.342;2024-02-16T04:57:34;7.40;99.90
5806;DHT22;2929;50.810;8.342;2024-02-16T05:00:01;7.40;99.90
5806;DHT22;2929;50.810;8.342;2024-02-16T05:02:28;7.40;99.90
5806;DHT22;2929;50.810;8.342;2024-02-16T05:04:55;7.40;99.90
5806;DHT22;2929;50.810;8.342;2024-02-16T05:07:22;7.40;99.90
5806;DHT22;2929;50.810;8.342;2024-02-16T05:09:49;7.50;99.90
5806;DHT22;2929;50.810;8.342;2024-02-16T05:12:22;7.40;99.90
5806;DHT22;2929;50.810;8.342;2024-02-16T05:14:51;7.50;99.90
5806;DHT22;2929;50.810;8.342;2024-02-16T05:17:18;7.50;99.90
5806;DHT22;2929;50.810;8.342;2024-02-16T05:19:46;7.50;99.90
5806;DHT22;2929;50.810;8.342;2024-02-16T05:22:13;7.50;99.90
5806;DHT22;2929;50.810;8.342;2024-02-16T05:24:40;7.50;99.90
5806;DHT22;2929;50.810;8.342;2024-02-16T05:27:07;7.50;99.90
5806;DHT22;2929;50.810;8.342;2024-02-16T05:29:34;7.50;99.90
5806;DHT22;2929;50.810;8.342;2024-02-16T05:32:02;7.70;99.90
5806;DHT22;2929;50.810;8.342;2024-02-16T05:34:29;7.70;99.90
5806;DHT22;2929;50.810;8.342;2024-02-16T05:37:03;7.60;99.90
5806;DHT22;2929;50.810;8.342;2024-02-16T05:39:32;7.70;99.90
5806;DHT22;2929;50.810;8.342;2024-02-16T05:42:01;7.70;99.90
5806;DHT22;2929;50.810;8.342;2024-02-16T05:44:28;7.70;99.90
5806;DHT22;2929;50.810;8.342;2024-02-16T05:46:55;7.70;99.90
5806;DHT22;2929;50.810;8.342;2024-02-16T05:49:24;7.70;99.90
5806;DHT22;2929;50.810;8.342;2024-02-16T05:51:51;7.70;99.90
5806;DHT22;2929;50.810;8.342;2024-02-16T05:54:34;7.70;99.90
5806;DHT22;2929;50.810;8.342;2024-02-16T05:57:01;7.70;99.90
5806;DHT22;2929;50.810;8.342;2024-02-16T05:59:29;7.70;99.90
5806;DHT22;2929;50.810;8.342;2024-02-16T06:01:56;7.70;99.90
5806;DHT22;2929;50.810;8.342;2024-02-16T06:04:26;7.70;99.90
5806;DHT22;2929;50.810;8.342;2024-02-16T06:06:53;7.60;99.90
5806;DHT22;2929;50.810;8.342;2024-02-16T06:09:20;7.60;99.90
5806;DHT22;2929;50.810;8.342;2024-02-16T06:11:46;7.50;99.90
5806;DHT22;2929;50.810;8.342;2024-02-16T06:14:14;7.50;99.90
5806;DHT22;2929;50.810;8.342;2024-02-16T06:16:42;7.50;99.90
5806;DHT22;2929;50.810;8.342;2024-02-16T06:19:09;7.50;99.90
5806;DHT22;2929;50.810;8.342;2024-02-16T06:21:37;7.50;99.90
5806;DHT22;2929;50.810;8.342;2024-02-16T06:24:04;7.40;99.90
5806;DHT22;2929;50.810;8.342;2024-02-16T06:26:33;7.40;99.90
5806;DHT22;2929;50.810;8.342;2024-02-16T06:29:00;7.30;99.90
5806;DHT22;2929;50.810;8.342;2024-02-16T06:31:27;7.30;99.90
5806;DHT22;2929;50.810;8.342;2024-02-16T06:33:54;7.30;99.90
5806;DHT22;2929;50.810;8.342;2024-02-16T06:36:22;7.30;99.90
5806;DHT22;2929;50.810;8.342;2024-02-16T06:38:50;7.30;99.90
5806;DHT22;2929;50.810;8.342;2024-02-16T06:41:19;7.20;99.90
5806;DHT22;2929;50.810;8.342;2024-02-16T06:43:46;7.20;99.90
5806;DHT22;2929;50.810;8.342;2024-02-16T06:46:13;7.20;99.90
5806;DHT22;2929;50.810;8.342;2024-02-16T06:48:40;7.20;99.90
5806;DHT22;2929;50.810;8.342;2024-02-16T06:51:07;7.20;99.90
5806;DHT22;2929;50.810;8.342;2024-02-16T06:53:34;7.20;99.90
5806;DHT22;2929;50.810;8.342;2024-02-16T06:56:03;7.20;99.90
5806;DHT22;2929;50.810;8.342;2024-02-16T06:58:30;7.20;99.90
5806;DHT22;2929;50.810;8.342;2024-02-16T07:00:57;7.20;99.90
5806;DHT22;2929;50.810;8.342;2024-02-16T07:03:28;7.20;99.90
5806;DHT22;2929;50.810;8.342;2024-02-16T07:05:55;7.30;99.90
5806;DHT22;2929;50.810;8.342;2024-02-16T07:08:23;7.30;99.90
5806;DHT22;2929;50.810;8.342;2024-02-16T07:10:51;7.30;99.90
5806;DHT22;2929;50.810;8.342;2024-02-16T07:13:22;7.40;99.90
5806;DHT22;2929;50.810;8.342;2024-02-16T07:15:50;7.40;99.90
5806;DHT22;2929;50.810;8.342;2024-02-16T07:18:17;7.40;99.90
5806;DHT22;2929;50.810;8.342;2024-02-16T07:20:44;7.40;99.90
5806;DHT22;2929;50.810;8.342;2024-02-16T07:23:11;7.50;99.90
5806;DHT22;2929;50.810;8.342;2024-02-16T07:25:38;7.50;99.90
5806;DHT22;2929;50.810;8.342;2024-02-16T07:28:05;7.60;99.90
5806;DHT22;2929;50.810;8.342;2024-02-16T07:30:34;7.60;99.90
5806;DHT22;2929;50.810;8.342;2024-02-16T07:33:04;7.60;99.90
5806;DHT22;2929;50.810;8.342;2024-02-16T07:35:31;7.70;99.90
5806;DHT22;2929;50.810;8.342;2024-02-16T07:37:58;7.80;99.90
5806;DHT22;2929;50.810;8.342;2024-02-16T07:40:24;7.80;99.90
5806;DHT22;2929;50.810;8.342;2024-02-16T07:42:51;7.80;99.90
5806;DHT22;2929;50.810;8.342;2024-02-16T07:45:18;7.90;99.90
5806;DHT22;2929;50.810;8.342;2024-02-16T07:47:47;7.90;99.90
5806;DHT22;2929;50.810;8.342;2024-02-16T07:50:17;7.90;99.90
5806;DHT22;2929;50.810;8.342;2024-02-16T07:52:44;7.90;99.90
5806;DHT22;2929;50.810;8.342;2024-02-16T07:55:11;8.00;99.90
5806;DHT22;2929;50.810;8.342;2024-02-16T07:57:39;8.00;99.90
5806;DHT22;2929;50.810;8.342;2024-02-16T08:00:07;8.00;99.90
5806;DHT22;2929;50.810;8.342;2024-02-16T08:02:36;8.00;99.90
5806;DHT22;2929;50.810;8.342;2024-02-16T08:05:06;8.10;99.90
5806;DHT22;2929;50.810;8.342;2024-02-16T08:07:33;8.10;99.90
5806;DHT22;2929;50.810;8.342;2024-02-16T08:10:00;8.20;99.90
5806;DHT22;2929;50.810;8.342;2024-02-16T08:12:29;8.20;99.90
5806;DHT22;2929;50.810;8.342;2024-02-16T08:14:57;8.30;99.90
5806;DHT22;2929;50.810;8.342;2024-02-16T08:17:26;8.30;99.90
5806;DHT22;2929;50.810;8.342;2024-02-16T08:19:53;8.30;99.90
5806;DHT22;2929;50.810;8.342;2024-02-16T08:22:22;8.40;99.90
5806;DHT22;2929;50.810;8.342;2024-02-16T08:24:49;8.50;99.90
5806;DHT22;2929;50.810;8.342;2024-02-16T08:27:17;8.50;99.90
5806;DHT22;2929;50.810;8.342;2024-02-16T08:29:44;8.60;99.90
5806;DHT22;2929;50.810;8.342;2024-02-16T08:32:11;8.70;99.90
5806;DHT22;2929;50.810;8.342;2024-02-16T08:34:38;8.70;99.90
5806;DHT22;2929;50.810;8.342;2024-02-16T08:37:06;8.70;99.90
5806;DHT22;2929;50.810;8.342;2024-02-16T08:39:34;8.80;99.90
5806;DHT22;2929;50.810;8.342;2024-02-16T08:42:04;8.80;99.90
5806;DHT22;2929;50.810;8.342;2024-02-16T08:44:31;8.90;99.90
5806;DHT22;2929;50.810;8.342;2024-02-16T08:46:58;8.90;99.90
5806;DHT22;2929;50.810;8.342;2024-02-16T08:49:25;9.00;99.90
5806;DHT22;2929;50.810;8.342;2024-02-16T08:51:52;9.10;99.90
5806;DHT22;2929;50.810;8.342;2024-02-16T08:54:19;9.10;99.90
5806;DHT22;2929;50.810;8.342;2024-02-16T08:56:47;9.20;99.90
5806;DHT22;2929;50.810;8.342;2024-02-16T08:59:14;9.20;99.90
5806;DHT22;2929;50.810;8.342;2024-02-16T09:01:43;9.30;99.90
5806;DHT22;2929;50.810;8.342;2024-02-16T09:04:10;9.40;99.90
5806;DHT22;2929;50.810;8.342;2024-02-16T09:06:37;9.40;99.90
5806;DHT22;2929;50.810;8.342;2024-02-16T09:09:04;9.50;99.90
5806;DHT22;2929;50.810;8.342;2024-02-16T09:11:32;9.60;99.90
5806;DHT22;2929;50.810;8.342;2024-02-16T09:14:00;9.70;99.90
5806;DHT22;2929;50.810;8.342;2024-02-16T09:16:27;9.70;99.90
5806;DHT22;2929;50.810;8.342;2024-02-16T09:18:54;9.90;99.90
5806;DHT22;2929;50.810;8.342;2024-02-16T09:21:21;10.00;99.90
5806;DHT22;2929;50.810;8.342;2024-02-16T09:23:49;10.10;99.90
5806;DHT22;2929;50.810;8.342;2024-02-16T09:26:16;10.20;99.90
5806;DHT22;2929;50.810;8.342;2024-02-16T09:28:43;10.30;99.90
5806;DHT22;2929;50.810;8.342;2024-02-16T09:31:15;10.50;99.90
5806;DHT22;2929;50.810;8.342;2024-02-16T09:33:42;10.70;99.90
5806;DHT22;2929;50.810;8.342;2024-02-16T09:36:08;10.80;99.90
5806;DHT22;2929;50.810;8.342;2024-02-16T09:38:35;11.00;99.90
5806;DHT22;2929;50.810;8.342;2024-02-16T09:41:02;10.90;99.90
5806;DHT22;2929;50.810;8.342;2024-02-16T09:43:30;11.00;99.90
5806;DHT22;2929;50.810;8.342;2024-02-16T09:45:58;11.10;99.90
5806;DHT22;2929;50.810;8.342;2024-02-16T09:48:29;11.20;99.90
5806;DHT22;2929;50.810;8.342;2024-02-16T09:50:57;11.20;99.90
5806;DHT22;2929;50.810;8.342;2024-02-16T09:53:25;11.40;99.90
5806;DHT22;2929;50.810;8.342;2024-02-16T09:55:53;11.40;99.90
5806;DHT22;2929;50.810;8.342;2024-02-16T09:58:20;11.40;99.90
5806;DHT22;2929;50.810;8.342;2024-02-16T10:00:51;11.50;99.90
5806;DHT22;2929;50.810;8.342;2024-02-16T10:03:23;11.50;99.90
5806;DHT22;2929;50.810;8.342;2024-02-16T10:05:52;11.60;99.90
5806;DHT22;2929;50.810;8.342;2024-02-16T10:08:19;11.60;99.90
5806;DHT22;2929;50.810;8.342;2024-02-16T10:10:46;11.60;99.90
5806;DHT22;2929;50.810;8.342;2024-02-16T10:13:15;11.80;99.90
5806;DHT22;2929;50.810;8.342;2024-02-16T10:15:43;11.80;99.90
5806;DHT22;2929;50.810;8.342;2024-02-16T10:18:10;11.90;99.90
5806;DHT22;2929;50.810;8.342;2024-02-16T10:20:39;12.00;99.90
5806;DHT22;2929;50.810;8.342;2024-02-16T10:23:09;11.90;99.90
5806;DHT22;2929;50.810;8.342;2024-02-16T10:25:37;12.00;99.90
5806;DHT22;2929;50.810;8.342;2024-02-16T10:28:06;12.00;99.90
5806;DHT22;2929;50.810;8.342;2024-02-16T10:30:35;12.00;99.90
5806;DHT22;2929;50.810;8.342;2024-02-16T10:33:05;12.00;99.90
5806;DHT22;2929;50.810;8.342;2024-02-16T10:35:34;12.00;99.90
5806;DHT22;2929;50.810;8.342;2024-02-16T10:38:02;12.10;99.90
5806;DHT22;2929;50.810;8.342;2024-02-16T10:40:34;12.10;99.90
5806;DHT22;2929;50.810;8.342;2024-02-16T10:43:04;12.20;99.90
5806;DHT22;2929;50.810;8.342;2024-02-16T10:45:34;12.30;99.90
5806;DHT22;2929;50.810;8.342;2024-02-16T10:48:02;12.40;99.90
5806;DHT22;2929;50.810;8.342;2024-02-16T10:50:31;12.40;99.90
5806;DHT22;2929;50.810;8.342;2024-02-16T10:53:02;12.50;99.90
5806;DHT22;2929;50.810;8.342;2024-02-16T10:55:31;12.50;99.90
5806;DHT22;2929;50.810;8.342;2024-02-16T10:58:00;12.50;99.90
5806;DHT22;2929;50.810;8.342;2024-02-16T11:00:27;12.60;99.90
5806;DHT22;2929;50.810;8.342;2024-02-16T11:02:54;12.50;99.90
5806;DHT22;2929;50.810;8.342;2024-02-16T11:05:35;12.50;99.90
5806;DHT22;2929;50.810;8.342;2024-02-16T11:08:03;12.60;99.90
5806;DHT22;2929;50.810;8.342;2024-02-16T11:10:30;12.60;99.90
5806;DHT22;2929;50.810;8.342;2024-02-16T11:13:04;12.60;99.90
5806;DHT22;2929;50.810;8.342;2024-02-16T11:15:32;12.80;99.90
5806;DHT22;2929;50.810;8.342;2024-02-16T11:18:00;13.10;99.90
5806;DHT22;2929;50.810;8.342;2024-02-16T11:20:28;13.20;99.90
5806;DHT22;2929;50.810;8.342;2024-02-16T11:23:05;13.30;99.90
5806;DHT22;2929;50.810;8.342;2024-02-16T11:25:33;13.20;99.90
5806;DHT22;2929;50.810;8.342;2024-02-16T11:28:03;13.30;99.90
5806;DHT22;2929;50.810;8.342;2024-02-16T11:30:32;13.50;99.90
5806;DHT22;2929;50.810;8.342;2024-02-16T11:33:01;13.70;99.90
5806;DHT22;2929;50.810;8.342;2024-02-16T11:35:28;14.00;99.90
5806;DHT22;2929;50.810;8.342;2024-02-16T11:37:56;14.10;99.90
5806;DHT22;2929;50.810;8.342;2024-02-16T11:40:25;14.30;99.90
5806;DHT22;2929;50.810;8.342;2024-02-16T11:43:03;14.40;99.90
5806;DHT22;2929;50.810;8.342;2024-02-16T11:45:33;14.30;99.90
5806;DHT22;2929;50.810;8.342;2024-02-16T11:48:07;14.10;99.90
5806;DHT22;2929;50.810;8.342;2024-02-16T11:50:35;14.00;99.90
5806;DHT22;2929;50.810;8.342;2024-02-16T11:53:02;14.00;99.90
5806;DHT22;2929;50.810;8.342;2024-02-16T11:55:30;14.10;99.90
5806;DHT22;2929;50.810;8.342;2024-02-16T11:57:58;14.20;99.90
5806;DHT22;2929;50.810;8.342;2024-02-16T12:00:26;14.30;99.90
5806;DHT22;2929;50.810;8.342;2024-02-16T12:03:00;14.30;99.90
5806;DHT22;2929;50.810;8.342;2024-02-16T12:05:28;14.40;99.90
5806;DHT22;2929;50.810;8.342;2024-02-16T12:07:57;14.40;99.90
5806;DHT22;2929;50.810;8.342;2024-02-16T12:10:25;14.40;99.90
5806;DHT22;2929;50.810;8.342;2024-02-16T12:12:52;14.30;99.90
5806;DHT22;2929;50.810;8.342;2024-02-16T12:15:21;14.20;99.90
5806;DHT22;2929;50.810;8.342;2024-02-16T12:17:59;14.20;99.90
5806;DHT22;2929;50.810;8.342;2024-02-16T12:20:27;14.20;99.90
5806;DHT22;2929;50.810;8.342;2024-02-16T12:22:54;14.10;99.90
5806;DHT22;2929;50.810;8.342;2024-02-16T12:25:21;14.20;99.90
5806;DHT22;2929;50.810;8.342;2024-02-16T12:27:48;14.30;99.90
5806;DHT22;2929;50.810;8.342;2024-02-16T12:30:15;14.20;99.90
5806;DHT22;2929;50.810;8.342;2024-02-16T12:32:42;14.20;99.90
5806;DHT22;2929;50.810;8.342;2024-02-16T12:35:10;14.30;99.90
5806;DHT22;2929;50.810;8.342;2024-02-16T12:37:37;14.60;99.90
5806;DHT22;2929;50.810;8.342;2024-02-16T12:40:05;14.70;99.90
5806;DHT22;2929;50.810;8.342;2024-02-16T12:42:32;14.70;99.90
5806;DHT22;2929;50.810;8.342;2024-02-16T12:45:00;14.50;99.90
5806;DHT22;2929;50.810;8.342;2024-02-16T12:47:27;14.30;99.90
5806;DHT22;2929;50.810;8.342;2024-02-16T12:49:56;14.20;99.90
5806;DHT22;2929;50.810;8.342;2024-02-16T12:52:25;14.20;99.90
5806;DHT22;2929;50.810;8.342;2024-02-16T12:54:52;14.20;99.90
5806;DHT22;2929;50.810;8.342;2024-02-16T12:57:19;14.10;99.90
5806;DHT22;2929;50.810;8.342;2024-02-16T12:59:46;14.10;99.90
5806;DHT22;2929;50.810;8.342;2024-02-16T13:02:14;14.10;99.90
5806;DHT22;2929;50.810;8.342;2024-02-16T13:04:41;14.10;99.90
5806;DHT22;2929;50.810;8.342;2024-02-16T13:07:08;14.20;99.90
5806;DHT22;2929;50.810;8.342;2024-02-16T13:09:38;14.30;99.90
5806;DHT22;2929;50.810;8.342;2024-02-16T13:12:06;14.40;99.90
5806;DHT22;2929;50.810;8.342;2024-02-16T13:14:32;14.50;99.90
5806;DHT22;2929;50.810;8.342;2024-02-16T13:16:59;14.40;99.90
5806;DHT22;2929;50.810;8.342;2024-02-16T13:19:26;14.60;99.90
5806;DHT22;2929;50.810;8.342;2024-02-16T13:21:53;14.80;99.90
5806;DHT22;2929;50.810;8.342;2024-02-16T13:24:20;14.90;99.90
5806;DHT22;2929;50.810;8.342;2024-02-16T13:26:49;15.00;99.90
5806;DHT22;2929;50.810;8.342;2024-02-16T13:29:18;15.00;99.90
5806;DHT22;2929;50.810;8.342;2024-02-16T13:31:44;14.90;99.90
5806;DHT22;2929;50.810;8.342;2024-02-16T13:34:13;14.80;99.90
5806;DHT22;2929;50.810;8.342;2024-02-16T13:36:44;14.60;99.90
5806;DHT22;2929;50.810;8.342;2024-02-16T13:39:11;14.40;99.90
5806;DHT22;2929;50.810;8.342;2024-02-16T13:41:40;14.20;99.90
5806;DHT22;2929;50.810;8.342;2024-02-16T13:44:08;14.10;99.90
5806;DHT22;2929;50.810;8.342;2024-02-16T13:46:35;14.00;99.90
5806;DHT22;2929;50.810;8.342;2024-02-16T13:49:02;13.90;99.90
5806;DHT22;2929;50.810;8.342;2024-02-16T13:51:29;13.80;99.90
5806;DHT22;2929;50.810;8.342;2024-02-16T13:53:56;13.70;99.90
5806;DHT22;2929;50.810;8.342;2024-02-16T13:56:23;13.70;99.90
5806;DHT22;2929;50.810;8.342;2024-02-16T13:58:50;13.70;99.90
5806;DHT22;2929;50.810;8.342;2024-02-16T14:01:19;13.70;99.90
5806;DHT22;2929;50.810;8.342;2024-02-16T14:03:46;13.70;99.90
5806;DHT22;2929;50.810;8.342;2024-02-16T14:06:13;13.70;99.90
5806;DHT22;2929;50.810;8.342;2024-02-16T14:08:40;13.70;99.90
5806;DHT22;2929;50.810;8.342;2024-02-16T14:11:07;13.50;99.90
5806;DHT22;2929;50.810;8.342;2024-02-16T14:13:34;13.40;99.90
5806;DHT22;2929;50.810;8.342;2024-02-16T14:16:01;13.20;99.90
5806;DHT22;2929;50.810;8.342;2024-02-16T14:18:37;13.10;99.90
5806;DHT22;2929;50.810;8.342;2024-02-16T14:21:05;13.00;99.90
5806;DHT22;2929;50.810;8.342;2024-02-16T14:23:32;12.90;99.90
5806;DHT22;2929;50.810;8.342;2024-02-16T14:26:00;12.80;99.90
5806;DHT22;2929;50.810;8.342;2024-02-16T14:28:26;12.80;99.90
5806;DHT22;2929;50.810;8.342;2024-02-16T14:30:53;12.80;99.90
5806;DHT22;2929;50.810;8.342;2024-02-16T14:33:21;12.70;99.90
5806;DHT22;2929;50.810;8.342;2024-02-16T14:35:49;12.70;99.90
5806;DHT22;2929;50.810;8.342;2024-02-16T14:38:16;12.70;99.90
5806;DHT22;2929;50.810;8.342;2024-02-16T14:40:43;12.60;99.90
5806;DHT22;2929;50.810;8.342;2024-02-16T14:43:10;12.50;99.90
5806;DHT22;2929;50.810;8.342;2024-02-16T14:45:38;12.40;99.90
5806;DHT22;2929;50.810;8.342;2024-02-16T14:48:05;12.30;99.90
5806;DHT22;2929;50.810;8.342;2024-02-16T14:50:32;12.30;99.90
5806;DHT22;2929;50.810;8.342;2024-02-16T14:53:02;12.30;99.90
5806;DHT22;2929;50.810;8.342;2024-02-16T14:55:29;12.20;99.90
5806;DHT22;2929;50.810;8.342;2024-02-16T14:57:56;12.20;99.90
5806;DHT22;2929;50.810;8.342;2024-02-16T15:00:23;12.10;99.90
5806;DHT22;2929;50.810;8.342;2024-02-16T15:02:50;12.00;99.90
5806;DHT22;2929;50.810;8.342;2024-02-16T15:05:17;12.00;99.90
5806;DHT22;2929;50.810;8.342;2024-02-16T15:07:46;12.00;99.90
5806;DHT22;2929;50.810;8.342;2024-02-16T15:10:14;11.90;99.90
5806;DHT22;2929;50.810;8.342;2024-02-16T15:12:41;11.90;99.90
5806;DHT22;2929;50.810;8.342;2024-02-16T15:15:08;11.90;99.90
5806;DHT22;2929;50.810;8.342;2024-02-16T15:17:36;11.90;99.90
5806;DHT22;2929;50.810;8.342;2024-02-16T15:20:03;11.80;99.90
5806;DHT22;2929;50.810;8.342;2024-02-16T15:22:31;11.70;99.90
5806;DHT22;2929;50.810;8.342;2024-02-16T15:24:58;11.60;99.90
5806;DHT22;2929;50.810;8.342;2024-02-16T15:27:26;11.60;99.90
5806;DHT22;2929;50.810;8.342;2024-02-16T15:29:53;11.60;99.90
5806;DHT22;2929;50.810;8.342;2024-02-16T15:32:20;11.50;99.90
5806;DHT22;2929;50.810;8.342;2024-02-16T15:34:47;11.40;99.90
5806;DHT22;2929;50.810;8.342;2024-02-16T15:37:18;11.40;99.90
5806;DHT22;2929;50.810;8.342;2024-02-16T15:39:46;11.40;99.90
5806;DHT22;2929;50.810;8.342;2024-02-16T15:42:19;11.40;99.90
5806;DHT22;2929;50.810;8.342;2024-02-16T15:44:47;11.40;99.90
5806;DHT22;2929;50.810;8.342;2024-02-16T15:47:14;11.40;99.90
5806;DHT22;2929;50.810;8.342;2024-02-16T15:49:41;11.40;99.90
5806;DHT22;2929;50.810;8.342;2024-02-16T15:52:08;11.30;99.90
5806;DHT22;2929;50.810;8.342;2024-02-16T15:54:35;11.30;99.90
5806;DHT22;2929;50.810;8.342;2024-02-16T15:57:02;11.40;99.90
5806;DHT22;2929;50.810;8.342;2024-02-16T15:59:29;11.30;99.90
5806;DHT22;2929;50.810;8.342;2024-02-16T16:01:57;11.30;99.90
5806;DHT22;2929;50.810;8.342;2024-02-16T16:04:24;11.20;99.90
5806;DHT22;2929;50.810;8.342;2024-02-16T16:06:51;11.30;99.90
5806;DHT22;2929;50.810;8.342;2024-02-16T16:09:18;11.30;99.90
5806;DHT22;2929;50.810;8.342;2024-02-16T16:11:45;11.30;99.90
5806;DHT22;2929;50.810;8.342;2024-02-16T16:14:12;11.30;99.90
5806;DHT22;2929;50.810;8.342;2024-02-16T16:16:39;11.30;99.90